createdAt,value
2023-03-26T00:00:40.772Z,1.88
2023-03-26T00:05:45.034Z,1.88
2023-03-26T00:10:47.304Z,1.50
2023-03-26T00:15:48.887Z,1.42
2023-03-26T00:20:52.635Z,1.55
2023-03-26T00:25:56.328Z,1.73
2023-03-26T00:31:03.896Z,1.50
2023-03-26T00:36:10.047Z,1.60
2023-03-26T00:41:25.104Z,1.77
2023-03-26T00:46:31.439Z,1.20
2023-03-26T00:51:34.142Z,1.42
2023-03-26T00:56:36.016Z,1.30
2023-03-26T01:06:42.106Z,1.42
2023-03-26T01:11:44.957Z,2.67
2023-03-26T01:16:58.086Z,2.33
2023-03-26T01:22:00.639Z,2.30
2023-03-26T01:27:39.053Z,2.28
2023-03-26T01:33:05.582Z,2.58
2023-03-26T01:43:29.628Z,2.85
2023-03-26T01:53:45.043Z,1.70
2023-03-26T01:59:01.561Z,1.88
2023-03-26T02:04:20.909Z,1.80
2023-03-26T02:09:26.161Z,1.70
2023-03-26T02:14:30.416Z,1.77
2023-03-26T02:19:32.046Z,2.00
2023-03-26T02:24:33.646Z,2.50
2023-03-26T02:29:39.930Z,2.90
2023-03-26T02:34:41.937Z,3.28
2023-03-26T02:39:43.643Z,3.17
2023-03-26T02:44:45.301Z,3.25
2023-03-26T02:49:46.944Z,3.05
2023-03-26T02:54:48.593Z,2.78
2023-03-26T02:59:50.482Z,3.28
2023-03-26T03:04:52.090Z,2.72
2023-03-26T03:09:53.677Z,2.95
2023-03-26T03:14:55.265Z,2.67
2023-03-26T03:19:56.943Z,2.40
2023-03-26T03:25:00.013Z,2.50
2023-03-26T03:30:01.656Z,2.25
2023-03-26T03:35:03.425Z,1.67
2023-03-26T03:40:08.349Z,1.90
2023-03-26T03:45:10.497Z,2.28
2023-03-26T03:50:12.124Z,1.75
2023-03-26T03:55:14.171Z,2.10
2023-03-26T04:00:16.270Z,2.33
2023-03-26T04:05:17.853Z,2.67
2023-03-26T04:10:19.543Z,2.15
2023-03-26T04:15:21.177Z,2.72
2023-03-26T04:20:23.322Z,2.17
2023-03-26T04:25:30.442Z,2.33
2023-03-26T04:30:33.769Z,2.08
2023-03-26T04:35:35.655Z,2.15
2023-03-26T04:40:39.183Z,2.50
2023-03-26T04:45:40.799Z,2.20
2023-03-26T04:50:44.415Z,2.22
2023-03-26T04:55:57.382Z,2.75
2023-03-26T05:01:09.713Z,2.20
2023-03-26T05:06:13.845Z,2.78
2023-03-26T05:11:15.568Z,2.50
2023-03-26T05:16:17.333Z,2.28
2023-03-26T05:21:18.996Z,2.25
2023-03-26T05:26:21.059Z,2.45
2023-03-26T05:31:22.747Z,2.92
2023-03-26T05:36:24.676Z,3.42
2023-03-26T05:41:26.439Z,4.15
2023-03-26T05:46:29.017Z,3.00
2023-03-26T05:51:30.718Z,2.95
2023-03-26T05:56:32.396Z,2.47
2023-03-26T06:01:34.060Z,2.65
2023-03-26T06:06:36.148Z,2.17
2023-03-26T06:11:37.755Z,2.22
2023-03-26T06:16:39.404Z,1.98
2023-03-26T06:21:41.112Z,1.83
2023-03-26T06:26:43.105Z,2.47
2023-03-26T06:31:44.770Z,2.80
2023-03-26T06:36:48.825Z,3.17
2023-03-26T06:41:50.480Z,3.47
2023-03-26T06:46:52.216Z,3.30
2023-03-26T06:51:53.891Z,3.00
2023-03-26T06:56:56.454Z,3.03
2023-03-26T07:01:58.086Z,3.45
2023-03-26T07:06:59.744Z,4.55
2023-03-26T07:12:01.444Z,4.03
2023-03-26T07:17:03.072Z,4.18
2023-03-26T07:22:06.502Z,3.50
2023-03-26T07:27:32.609Z,4.10
2023-03-26T07:32:40.401Z,4.78
2023-03-26T07:38:01.183Z,4.60
2023-03-26T07:44:01.625Z,5.45
2023-03-26T07:49:04.902Z,5.30
2023-03-26T07:54:09.042Z,4.68
2023-03-26T07:59:10.595Z,4.65
2023-03-26T08:04:39.313Z,4.43
2023-03-26T08:09:57.066Z,4.40
2023-03-26T08:15:11.082Z,4.78
2023-03-26T08:20:21.416Z,4.60
2023-03-26T08:25:28.215Z,4.78
2023-03-26T08:35:35.299Z,5.40
2023-03-26T08:40:55.875Z,5.00
2023-03-26T08:46:21.560Z,4.55
2023-03-26T08:51:45.766Z,4.70
2023-03-26T08:57:18.283Z,4.70
2023-03-26T09:02:22.932Z,4.25
2023-03-26T09:07:44.271Z,5.22
2023-03-26T09:13:07.032Z,4.78
2023-03-26T09:18:20.726Z,4.50
2023-03-26T09:23:52.682Z,4.18
2023-03-26T09:29:09.291Z,3.30
2023-03-26T09:39:36.511Z,3.00
2023-03-26T09:45:12.125Z,2.28
2023-03-26T09:50:31.838Z,3.30
2023-03-26T09:55:51.082Z,2.78
2023-03-26T10:01:20.491Z,2.75
2023-03-26T10:06:41.484Z,2.90
2023-03-26T10:12:06.065Z,2.50
2023-03-26T10:17:35.852Z,2.00
2023-03-26T10:23:16.788Z,2.63
2023-03-26T10:28:51.133Z,2.45
2023-03-26T10:34:10.392Z,2.85
2023-03-26T10:39:56.377Z,2.40
2023-03-26T10:45:31.686Z,1.88
2023-03-26T10:51:00.165Z,1.95
2023-03-26T10:56:15.024Z,1.85
2023-03-26T11:01:36.020Z,1.65
2023-03-26T11:06:51.682Z,2.20
2023-03-26T11:12:26.553Z,2.30
2023-03-26T11:17:54.965Z,1.98
2023-03-26T11:23:22.937Z,2.08
2023-03-26T11:29:03.309Z,2.00
2023-03-26T11:34:13.557Z,2.08
2023-03-26T11:39:23.269Z,2.13
2023-03-26T11:44:30.909Z,2.03
2023-03-26T11:49:32.998Z,1.88
2023-03-26T11:54:34.830Z,1.73
2023-03-26T11:59:57.165Z,1.70
2023-03-26T12:05:15.596Z,2.03
2023-03-26T12:10:25.006Z,1.55
2023-03-26T12:15:27.965Z,1.92
2023-03-26T12:20:29.569Z,1.52
2023-03-26T12:25:39.214Z,1.60
2023-03-26T12:30:50.833Z,1.95
2023-03-26T12:35:53.338Z,1.65
2023-03-26T12:42:52.888Z,1.63
2023-03-26T12:52:23.309Z,1.30
2023-03-26T12:57:47.242Z,1.75
2023-03-26T13:03:04.127Z,1.77
2023-03-26T13:08:49.812Z,1.50
2023-03-26T13:14:13.991Z,1.35
2023-03-26T13:19:28.889Z,1.77
2023-03-26T13:24:39.926Z,1.30
2023-03-26T13:30:01.738Z,1.40
2023-03-26T13:35:22.360Z,1.13
2023-03-26T13:40:36.584Z,1.60
2023-03-26T13:46:20.333Z,1.30
2023-03-26T13:51:30.994Z,1.10
2023-03-26T13:56:43.261Z,1.40
2023-03-26T14:01:53.603Z,1.30
2023-03-26T14:07:16.249Z,1.27
2023-03-26T14:12:51.647Z,1.23
2023-03-26T14:18:16.028Z,1.60
2023-03-26T14:23:55.469Z,1.33
2023-03-26T14:29:12.493Z,1.73
2023-03-26T14:34:23.574Z,1.55
2023-03-26T14:39:51.945Z,1.50
2023-03-26T14:45:24.095Z,0.90
2023-03-26T14:50:50.551Z,1.30
2023-03-26T14:56:04.661Z,1.42
2023-03-26T15:01:27.116Z,1.60
2023-03-26T15:07:07.087Z,2.15
2023-03-26T15:12:23.603Z,1.50
2023-03-26T15:23:09.391Z,1.60
2023-03-26T15:28:48.769Z,2.67
2023-03-26T15:34:20.160Z,1.55
2023-03-26T15:39:58.656Z,1.85
2023-03-26T15:45:20.375Z,2.85
2023-03-26T15:50:46.727Z,1.58
2023-03-26T16:01:41.955Z,1.88
2023-03-26T16:07:11.803Z,1.65
2023-03-26T16:12:17.350Z,1.63
2023-03-26T16:17:23.471Z,1.00
2023-03-26T16:22:57.176Z,1.30
2023-03-26T16:28:28.482Z,1.50
2023-03-26T16:33:39.041Z,1.67
2023-03-26T16:38:54.902Z,1.77
2023-03-26T16:44:11.021Z,1.63
2023-03-26T16:49:19.536Z,1.27
2023-03-26T16:54:37.177Z,1.50
2023-03-26T16:59:46.822Z,2.08
2023-03-26T17:05:45.914Z,1.80
2023-03-26T17:11:08.557Z,1.58
2023-03-26T17:16:27.512Z,1.90
2023-03-26T17:22:25.511Z,2.45
2023-03-26T17:27:56.805Z,1.58
2023-03-26T17:33:24.160Z,2.40
2023-03-26T17:38:27.238Z,2.42
2023-03-26T17:43:46.141Z,2.10
2023-03-26T17:48:57.697Z,2.35
2023-03-26T17:54:00.891Z,2.58
2023-03-26T17:59:11.297Z,2.08
2023-03-26T18:04:27.758Z,1.98
2023-03-26T18:09:49.129Z,2.40
2023-03-26T18:15:30.481Z,2.10
2023-03-26T18:20:37.362Z,2.20
2023-03-26T18:25:41.546Z,2.50
2023-03-26T18:30:49.311Z,4.10
2023-03-26T18:35:55.748Z,2.60
2023-03-26T18:40:59.546Z,1.83
2023-03-26T18:46:04.286Z,1.70
2023-03-26T18:51:08.152Z,1.45
2023-03-26T18:56:41.004Z,1.30
2023-03-26T19:01:47.260Z,1.60
2023-03-26T19:06:54.482Z,1.30
2023-03-26T19:11:59.418Z,1.58
2023-03-26T19:17:05.867Z,1.45
2023-03-26T19:22:12.751Z,1.63
2023-03-26T19:27:16.121Z,1.13
2023-03-26T19:32:32.511Z,1.63
2023-03-26T19:37:35.237Z,2.13
2023-03-26T19:42:42.978Z,2.63
2023-03-26T19:47:56.924Z,1.80
2023-03-26T19:53:16.779Z,1.25
2023-03-26T19:58:20.401Z,1.25
2023-03-26T20:03:31.373Z,1.08
2023-03-26T20:08:33.975Z,0.90
2023-03-26T20:13:37.817Z,1.42
2023-03-26T20:18:40.641Z,1.05
2023-03-26T20:23:44.438Z,1.10
2023-03-26T20:28:52.741Z,1.20
2023-03-26T20:33:56.577Z,1.05
2023-03-26T20:38:58.971Z,0.98
2023-03-26T20:44:01.551Z,0.82
2023-03-26T20:49:04.958Z,0.90
2023-03-26T20:54:08.620Z,0.50
2023-03-26T20:59:15.006Z,0.32
2023-03-26T21:04:17.920Z,0.30
2023-03-26T21:09:24.094Z,0.40
2023-03-26T21:14:32.245Z,0.30
2023-03-26T21:19:34.154Z,0.60
2023-03-26T21:25:01.483Z,0.40
2023-03-26T21:30:06.053Z,0.50
2023-03-26T21:35:08.688Z,0.73
2023-03-26T21:40:16.419Z,0.50
2023-03-26T21:45:19.439Z,0.20
2023-03-26T21:50:23.620Z,0.30
2023-03-26T21:55:25.948Z,0.20
2023-03-26T22:00:43.209Z,0.22
2023-03-26T22:06:08.652Z,0.15
2023-03-26T22:11:12.315Z,0.20
2023-03-26T22:16:14.021Z,0.40
2023-03-26T22:21:15.649Z,0.20
2023-03-26T22:26:17.213Z,0.30
2023-03-26T22:31:19.410Z,0.20
2023-03-26T22:36:23.150Z,0.30
2023-03-26T22:41:25.849Z,0.20
2023-03-26T22:46:28.924Z,0.20
2023-03-26T22:51:31.018Z,0.30
2023-03-26T22:56:32.897Z,0.30
2023-03-26T23:01:34.867Z,0.30
2023-03-26T23:06:36.757Z,0.30
2023-03-26T23:11:39.510Z,0.30
2023-03-26T23:16:42.410Z,0.45
2023-03-26T23:21:44.116Z,0.50
2023-03-26T23:26:50.768Z,1.63
2023-03-26T23:31:54.040Z,0.50
2023-03-26T23:36:55.754Z,0.20
2023-03-26T23:41:57.359Z,0.35
2023-03-26T23:47:00.569Z,0.28
2023-03-26T23:52:02.175Z,0.20
2023-03-26T23:57:04.111Z,0.22
